Time;durP1;ratioP1;P1;durP2;ratioP2;P2;SDS_P1;SDS_P2;PMS_P1;PMS_P2;Temp;Humidity;BMP_temperature;BMP_pressure;BME280_temperature;BME280_humidity;BME280_pressure;Samples;Min_cycle;Max_cycle;Signal;HPM_P1;HPM_P2
2023/09/14 00:00:46;;;;;;;45.37;30.07;;;;;;;17.74;100.00;99913.69;4213727;28;20663;-71
2023/09/14 00:03:13;;;;;;;50.13;31.90;;;;;;;17.68;100.00;99909.91;4199215;28;21060;-69
2023/09/14 00:05:41;;;;;;;48.60;29.47;;;;;;;17.73;100.00;99912.00;4224136;28;20549;-72
2023/09/14 00:08:08;;;;;;;46.97;31.27;;;;;;;17.73;100.00;99901.88;4198536;28;21489;-73
2023/09/14 00:10:36;;;;;;;46.83;30.90;;;;;;;17.70;100.00;99907.81;4213177;28;20392;-74
2023/09/14 00:13:03;;;;;;;51.87;31.27;;;;;;;17.70;100.00;99910.53;4213511;28;20856;-72
2023/09/14 00:15:30;;;;;;;50.33;30.17;;;;;;;17.66;100.00;99912.00;4218666;28;20250;-71
2023/09/14 00:17:56;;;;;;;46.80;29.73;;;;;;;17.76;100.00;99914.31;4207580;28;23590;-71
2023/09/14 00:20:26;;;;;;;47.70;30.13;;;;;;;17.80;100.00;99914.75;4221981;28;20231;-72
2023/09/14 00:22:55;;;;;;;46.23;30.07;;;;;;;17.70;100.00;99913.28;4209343;28;22167;-72
2023/09/14 00:25:21;;;;;;;48.47;29.93;;;;;;;17.69;100.00;99899.78;4206592;28;20238;-69
2023/09/14 00:27:49;;;;;;;49.63;29.90;;;;;;;17.72;100.00;99913.88;4214670;28;20237;-70
2023/09/14 00:30:18;;;;;;;48.13;30.03;;;;;;;17.63;100.00;99911.56;4216070;28;25981;-70
2023/09/14 00:32:47;;;;;;;55.37;31.70;;;;;;;17.62;100.00;99913.47;4211178;28;20225;-70
2023/09/14 00:35:14;;;;;;;46.67;29.13;;;;;;;17.59;100.00;99916.59;4214515;28;20236;-71
2023/09/14 00:37:42;;;;;;;49.57;31.03;;;;;;;17.65;100.00;99914.94;4214828;28;20371;-71
2023/09/14 00:40:10;;;;;;;44.77;29.13;;;;;;;17.57;100.00;99910.47;4208147;28;20876;-72
2023/09/14 00:42:41;;;;;;;45.67;29.37;;;;;;;17.56;100.00;99911.56;4209868;28;20281;-71
2023/09/14 00:45:10;;;;;;;48.53;29.80;;;;;;;17.54;100.00;99910.91;4205060;28;20232;-71
2023/09/14 00:47:38;;;;;;;52.00;29.57;;;;;;;17.60;100.00;99914.72;4209669;28;20233;-72
2023/09/14 00:50:06;;;;;;;50.07;29.20;;;;;;;17.51;100.00;99916.78;4209732;28;20296;-73
2023/09/14 00:52:35;;;;;;;48.83;29.73;;;;;;;17.54;100.00;99913.66;4213724;28;20291;-72
2023/09/14 00:55:05;;;;;;;48.63;28.97;;;;;;;17.52;100.00;99916.56;4223357;28;20256;-70
2023/09/14 00:57:33;;;;;;;48.60;27.07;;;;;;;17.65;100.00;99918.50;4210492;28;22615;-74
2023/09/14 00:59:59;;;;;;;43.43;27.93;;;;;;;17.66;100.00;99922.09;4209118;28;21804;-70
2023/09/14 01:02:26;;;;;;;43.20;26.30;;;;;;;17.71;100.00;99919.56;4223221;28;20245;-69
2023/09/14 01:04:53;;;;;;;45.57;26.23;;;;;;;17.71;100.00;99920.41;4210423;28;20240;-72
2023/09/14 01:07:23;;;;;;;46.97;25.37;;;;;;;17.59;100.00;99916.59;4201866;28;21546;-72
2023/09/14 01:09:50;;;;;;;36.53;24.73;;;;;;;17.62;100.00;99929.88;4217552;28;20764;-72
2023/09/14 01:12:18;;;;;;;38.07;25.23;;;;;;;17.56;100.00;99937.03;4217063;28;21638;-70
2023/09/14 01:15:01;;;;;;;41.97;25.03;;;;;;;17.65;100.00;99926.72;4205466;28;20410;-71
2023/09/14 01:17:40;;;;;;;36.63;22.07;;;;;;;17.77;100.00;99935.16;4216509;28;22056;-70
2023/09/14 01:20:16;;;;;;;35.17;22.50;;;;;;;17.73;100.00;99934.75;4220487;28;20569;-72
2023/09/14 01:23:10;;;;;;;36.40;22.73;;;;;;;17.66;100.00;99927.56;4206969;28;20533;-72
2023/09/14 01:25:42;;;;;;;36.37;22.97;;;;;;;17.69;100.00;99938.09;4232115;28;20232;-72
2023/09/14 01:28:11;;;;;;;32.87;21.60;;;;;;;17.71;100.00;99930.53;4210830;28;20361;-70
2023/09/14 01:30:39;;;;;;;38.27;22.67;;;;;;;17.63;100.00;99928.84;4216196;28;20427;-70
2023/09/14 01:33:07;;;;;;;38.43;22.03;;;;;;;17.72;100.00;99940.44;4185565;28;20361;-72
2023/09/14 01:36:00;;;;;;;35.90;21.43;;;;;;;17.79;100.00;99941.28;4212294;28;20237;-69
2023/09/14 01:38:28;;;;;;;39.13;21.07;;;;;;;17.63;100.00;99944.41;4199660;28;20262;-69
2023/09/14 01:40:56;;;;;;;37.17;21.50;;;;;;;17.65;100.00;99948.63;4212362;28;20232;-70
2023/09/14 01:43:23;;;;;;;34.77;20.50;;;;;;;17.71;100.00;99950.53;4214393;28;21315;-69
2023/09/14 01:45:51;;;;;;;34.43;19.73;;;;;;;17.62;100.00;99946.31;4206204;28;23443;-70
2023/09/14 01:48:19;;;;;;;33.00;20.57;;;;;;;17.54;100.00;99949.22;4204152;28;21003;-70
2023/09/14 01:50:46;;;;;;;34.87;20.80;;;;;;;17.54;100.00;99958.25;4210469;28;20500;-69
2023/09/14 01:53:13;;;;;;;30.30;19.70;;;;;;;17.57;100.00;99957.88;4213046;28;20245;-71
2023/09/14 01:55:40;;;;;;;30.37;20.77;;;;;;;17.55;100.00;99959.13;4208835;28;20236;-73
2023/09/14 01:58:06;;;;;;;33.23;20.57;;;;;;;17.55;100.00;99961.88;4215668;28;22767;-71
2023/09/14 02:00:33;;;;;;;32.77;20.93;;;;;;;17.51;100.00;99953.22;4215131;28;20412;-70
2023/09/14 02:02:59;;;;;;;31.33;20.93;;;;;;;17.59;100.00;99963.13;4217884;28;20236;-70
2023/09/14 02:05:26;;;;;;;34.40;21.80;;;;;;;17.49;100.00;99962.66;4215279;28;20235;-72
2023/09/14 02:07:53;;;;;;;33.33;20.17;;;;;;;17.53;100.00;99953.00;4217084;28;20316;-69
2023/09/14 02:10:22;;;;;;;29.67;20.63;;;;;;;17.43;100.00;99965.19;4203650;28;20512;-71
2023/09/14 02:12:49;;;;;;;29.00;19.77;;;;;;;17.50;100.00;99965.22;4208149;28;20231;-70
2023/09/14 02:15:17;;;;;;;32.50;20.67;;;;;;;17.42;100.00;99965.38;4214764;28;20409;-70
2023/09/14 02:17:44;;;;;;;39.07;20.30;;;;;;;17.39;100.00;99969.38;4222205;28;20339;-70
2023/09/14 02:20:11;;;;;;;28.83;19.03;;;;;;;17.49;100.00;99969.00;4206762;28;20237;-69
2023/09/14 02:22:38;;;;;;;29.20;18.87;;;;;;;17.52;100.00;99973.22;4218693;28;20236;-69
2023/09/14 02:25:05;;;;;;;33.80;19.57;;;;;;;17.42;100.00;99973.59;4222777;28;20248;-71
2023/09/14 02:27:33;;;;;;;26.80;18.37;;;;;;;17.46;100.00;99977.59;4232311;28;20259;-73
2023/09/14 02:30:00;;;;;;;29.73;19.03;;;;;;;17.44;100.00;99976.97;4207067;28;20246;-70
2023/09/14 02:32:26;;;;;;;27.83;18.07;;;;;;;17.51;100.00;99985.19;4204320;28;20236;-70
2023/09/14 02:34:53;;;;;;;33.13;18.40;;;;;;;17.47;100.00;99982.03;4201359;28;20235;-69
2023/09/14 02:37:21;;;;;;;26.10;17.57;;;;;;;17.48;100.00;99988.38;4204861;28;20768;-70
2023/09/14 02:39:48;;;;;;;26.87;17.77;;;;;;;17.49;100.00;99981.81;4217634;28;20544;-71
2023/09/14 02:42:14;;;;;;;27.00;17.90;;;;;;;17.42;100.00;99982.63;4215343;28;20317;-70
2023/09/14 02:44:41;;;;;;;24.50;17.13;;;;;;;17.48;100.00;99986.47;4216019;28;20712;-72
2023/09/14 02:47:07;;;;;;;27.30;17.40;;;;;;;17.43;100.00;99995.28;4210579;28;22430;-71
2023/09/14 02:49:34;;;;;;;26.93;17.73;;;;;;;17.36;100.00;99997.13;4219335;28;20862;-71
2023/09/14 02:52:00;;;;;;;30.87;17.33;;;;;;;17.33;100.00;99993.97;4220769;28;23344;-71
2023/09/14 02:54:27;;;;;;;32.07;17.33;;;;;;;17.45;100.00;100000.53;4206859;28;20236;-69
2023/09/14 02:56:54;;;;;;;25.60;16.63;;;;;;;17.44;100.00;100009.81;4219403;28;22086;-70
2023/09/14 02:59:21;;;;;;;24.43;16.57;;;;;;;17.44;100.00;100007.06;4215341;28;20247;-70
2023/09/14 03:01:49;;;;;;;24.90;16.20;;;;;;;17.39;100.00;100004.94;4207058;28;20384;-71
2023/09/14 03:04:16;;;;;;;24.43;15.97;;;;;;;17.38;100.00;100007.88;4202281;28;20250;-73
2023/09/14 03:06:43;;;;;;;24.43;15.33;;;;;;;17.39;100.00;100015.03;4223873;28;21204;-70
2023/09/14 03:09:10;;;;;;;24.23;15.77;;;;;;;17.36;100.00;100021.75;4212547;28;20232;-72
2023/09/14 03:11:36;;;;;;;24.87;15.83;;;;;;;17.35;100.00;100017.31;4214825;28;20311;-71
2023/09/14 03:14:03;;;;;;;22.50;16.33;;;;;;;17.27;100.00;100018.34;4211752;28;22079;-70
2023/09/14 03:16:29;;;;;;;19.57;14.30;;;;;;;17.24;100.00;100020.66;4218687;28;20223;-72
2023/09/14 03:18:56;;;;;;;23.20;14.97;;;;;;;17.16;100.00;100026.28;4206035;28;20237;-71
2023/09/14 03:21:27;;;;;;;26.87;15.73;;;;;;;17.20;100.00;100016.59;4215188;28;20535;-70
2023/09/14 03:23:55;;;;;;;23.93;14.93;;;;;;;17.18;100.00;100016.81;4215462;28;21616;-70
2023/09/14 03:26:27;;;;;;;21.87;13.83;;;;;;;17.33;100.00;100024.91;4207233;28;20234;-69
2023/09/14 03:28:54;;;;;;;23.47;15.07;;;;;;;17.18;100.00;100026.94;4214735;28;20239;-70
2023/09/14 03:31:21;;;;;;;20.00;13.50;;;;;;;17.31;100.00;100037.94;4217550;28;20236;-68
2023/09/14 03:33:52;;;;;;;20.97;13.80;;;;;;;17.30;100.00;100032.66;4213721;28;20240;-72
2023/09/14 03:36:19;;;;;;;23.33;13.20;;;;;;;17.26;100.00;100038.53;4204232;28;21968;-71
2023/09/14 03:38:47;;;;;;;20.47;12.40;;;;;;;17.39;100.00;100040.53;4215598;28;20247;-69
2023/09/14 03:41:14;;;;;;;23.63;13.33;;;;;;;17.41;100.00;100048.50;4218042;28;20228;-70
2023/09/14 03:43:41;;;;;;;18.33;13.07;;;;;;;17.43;100.00;100050.00;4214335;28;20314;-71
2023/09/14 03:46:10;;;;;;;19.27;12.03;;;;;;;17.31;100.00;100054.34;4220121;28;20231;-71
2023/09/14 03:48:36;;;;;;;19.63;12.00;;;;;;;17.35;100.00;100054.81;4223143;28;20247;-71
2023/09/14 03:51:03;;;;;;;19.80;12.40;;;;;;;17.25;100.00;100061.47;4213049;28;20240;-72
2023/09/14 03:53:30;;;;;;;20.90;12.27;;;;;;;17.35;100.00;100063.00;4209899;28;20295;-72
2023/09/14 03:56:00;;;;;;;16.73;11.40;;;;;;;17.36;100.00;100071.00;4205898;28;20232;-69
2023/09/14 03:58:27;;;;;;;18.37;11.73;;;;;;;17.31;100.00;100075.38;4220075;28;20235;-71
2023/09/14 04:00:54;;;;;;;18.10;11.57;;;;;;;17.30;100.00;100081.91;4204739;28;20242;-71
2023/09/14 04:03:22;;;;;;;21.93;12.10;;;;;;;17.14;100.00;100083.94;4217647;28;20246;-69
2023/09/14 04:05:48;;;;;;;17.50;11.17;;;;;;;17.32;100.00;100086.16;4215746;28;20260;-73
2023/09/14 04:08:15;;;;;;;18.63;11.73;;;;;;;17.35;100.00;100088.47;4212404;28;20312;-70
2023/09/14 04:10:42;;;;;;;16.27;10.83;;;;;;;17.28;100.00;100090.31;4219090;28;21152;-72
2023/09/14 04:13:32;;;;;;;15.17;10.20;;;;;;;17.41;100.00;100090.38;4211347;28;20276;-71
2023/09/14 04:16:01;;;;;;;14.80;10.63;;;;;;;17.38;100.00;100093.53;4230718;28;20233;-69
2023/09/14 04:18:29;;;;;;;14.13;10.23;;;;;;;17.32;100.00;100094.34;4208018;28;20360;-70
2023/09/14 04:20:55;;;;;;;15.00;9.90;;;;;;;17.34;100.00;100099.63;4224342;28;20239;-70
2023/09/14 04:23:22;;;;;;;16.13;9.93;;;;;;;17.29;100.00;100102.94;4215287;28;20934;-70
2023/09/14 04:25:51;;;;;;;14.97;9.63;;;;;;;17.26;100.00;100103.34;4199895;28;20235;-72
2023/09/14 04:28:18;;;;;;;18.43;10.07;;;;;;;17.18;100.00;100109.81;4209171;28;20240;-72
2023/09/14 04:30:54;;;;;;;13.97;9.47;;;;;;;17.25;100.00;100110.72;4213433;28;21123;-71
2023/09/14 04:33:21;;;;;;;14.23;9.37;;;;;;;17.17;100.00;100118.22;4205431;28;20303;-70
2023/09/14 04:35:48;;;;;;;15.97;9.10;;;;;;;17.10;100.00;100121.78;4238352;28;20232;-69
2023/09/14 04:38:14;;;;;;;17.00;8.90;;;;;;;17.25;100.00;100121.66;4210400;28;20258;-71
2023/09/14 04:40:43;;;;;;;16.50;8.60;;;;;;;17.35;100.00;100126.75;4208290;28;20391;-69
2023/09/14 04:43:10;;;;;;;16.60;8.97;;;;;;;17.20;100.00;100126.88;4215958;28;22263;-70
2023/09/14 04:45:37;;;;;;;14.07;8.43;;;;;;;17.28;100.00;100128.59;4238615;28;20528;-70
2023/09/14 04:48:05;;;;;;;14.53;8.37;;;;;;;17.17;100.00;100131.91;4215359;28;20334;-68
2023/09/14 04:50:33;;;;;;;13.80;9.47;;;;;;;17.23;100.00;100134.69;4224282;28;20265;-72
2023/09/14 04:52:59;;;;;;;17.93;8.07;;;;;;;17.19;100.00;100141.59;4227099;28;20246;-70
2023/09/14 04:55:26;;;;;;;14.07;8.10;;;;;;;17.34;100.00;100146.13;4228440;28;20232;-70
2023/09/14 04:57:52;;;;;;;12.07;7.40;;;;;;;17.34;100.00;100146.13;4196417;28;22911;-69
2023/09/14 05:00:19;;;;;;;10.87;7.33;;;;;;;17.32;100.00;100154.53;4232037;28;20298;-68
2023/09/14 05:02:46;;;;;;;13.90;8.23;;;;;;;17.19;100.00;100158.00;4218485;28;20253;-69
2023/09/14 05:05:13;;;;;;;12.63;7.03;;;;;;;17.39;100.00;100160.91;4214939;28;21758;-68
2023/09/14 05:07:42;;;;;;;13.27;6.73;;;;;;;17.29;100.00;100163.13;4204729;28;20243;-70
2023/09/14 05:10:10;;;;;;;13.20;6.70;;;;;;;17.29;100.00;100165.88;4219487;28;20680;-71
2023/09/14 05:12:37;;;;;;;10.47;6.53;;;;;;;17.25;100.00;100170.06;4228471;28;21332;-70
2023/09/14 05:15:05;;;;;;;10.37;6.60;;;;;;;17.16;100.00;100176.72;4200838;28;20296;-72
2023/09/14 05:17:31;;;;;;;8.83;6.30;;;;;;;17.31;100.00;100174.72;4206906;28;20241;-70
2023/09/14 05:19:58;;;;;;;10.70;5.63;;;;;;;17.30;100.00;100167.56;4216320;28;22553;-71
2023/09/14 05:22:25;;;;;;;10.93;6.00;;;;;;;17.29;99.71;100170.50;4216889;28;20729;-69
2023/09/14 05:24:53;;;;;;;13.10;5.87;;;;;;;17.31;99.49;100174.72;4204898;28;20237;-70
2023/09/14 05:27:19;;;;;;;8.77;5.47;;;;;;;17.20;99.41;100175.25;4204892;28;20297;-71
2023/09/14 05:29:49;;;;;;;10.70;4.93;;;;;;;17.30;99.35;100178.50;4221603;28;20233;-71
2023/09/14 05:32:15;;;;;;;8.93;5.20;;;;;;;17.24;99.75;100188.34;4224768;28;23911;-69
2023/09/14 05:34:42;;;;;;;10.03;5.03;;;;;;;17.25;99.68;100186.47;4223347;28;21051;-73
2023/09/14 05:37:10;;;;;;;10.83;5.20;;;;;;;17.22;99.62;100187.69;4220915;28;22381;-69
2023/09/14 05:39:37;;;;;;;7.80;4.67;;;;;;;17.25;99.69;100189.22;4202516;28;20312;-72
2023/09/14 05:42:04;;;;;;;11.00;5.07;;;;;;;17.28;98.71;100186.06;4236840;28;20894;-69
2023/09/14 05:44:31;;;;;;;9.20;4.37;;;;;;;17.22;99.32;100193.16;4229288;28;20241;-71
2023/09/14 05:46:57;;;;;;;7.87;4.87;;;;;;;17.29;99.06;100198.69;4211693;28;25697;-70
2023/09/14 05:49:24;;;;;;;10.57;5.00;;;;;;;17.24;99.26;100196.56;4236214;28;20481;-68
2023/09/14 05:51:51;;;;;;;5.07;3.90;;;;;;;17.32;98.61;100202.94;4229887;28;20548;-71
2023/09/14 05:54:18;;;;;;;7.40;4.43;;;;;;;17.31;98.68;100195.75;4214012;28;21470;-71
2023/09/14 05:56:45;;;;;;;9.93;4.10;;;;;;;17.28;97.77;100199.75;4229647;28;20236;-71
2023/09/14 05:59:12;;;;;;;11.43;4.50;;;;;;;17.18;98.58;100211.03;4219003;28;20244;-70
2023/09/14 06:01:57;;;;;;;5.73;4.13;;;;;;;17.08;98.85;100211.38;4230526;28;20232;-70
2023/09/14 06:04:24;;;;;;;8.13;4.37;;;;;;;17.08;99.42;100211.38;4206564;28;20239;-52
2023/09/14 06:06:50;;;;;;;7.97;3.83;;;;;;;17.24;98.74;100207.50;4209593;28;20233;-45
2023/09/14 06:09:17;;;;;;;7.33;3.83;;;;;;;17.39;97.35;100214.78;4234252;28;20351;-45
2023/09/14 06:11:44;;;;;;;9.33;3.43;;;;;;;17.59;95.47;100212.19;4213479;28;20272;-48
2023/09/14 06:14:10;;;;;;;7.53;3.07;;;;;;;17.47;96.02;100216.53;4195516;28;23871;-45
2023/09/14 06:16:37;;;;;;;8.90;2.93;;;;;;;17.72;95.94;100225.13;4221095;28;20234;-46
2023/09/14 06:19:04;;;;;;;5.30;3.27;;;;;;;17.93;93.71;100223.38;4209115;28;20462;-44
2023/09/14 06:21:31;;;;;;;6.97;3.00;;;;;;;17.96;93.36;100226.59;4211230;28;20283;-44
2023/09/14 06:23:57;;;;;;;6.63;3.23;;;;;;;18.30;91.65;100222.13;4219060;28;21626;-50
2023/09/14 06:26:27;;;;;;;5.67;3.00;;;;;;;18.27;90.29;100221.72;4221260;28;20247;-62
2023/09/14 06:28:55;;;;;;;7.97;3.30;;;;;;;18.24;90.32;100225.66;4206145;28;20232;-45
2023/09/14 06:31:25;;;;;;;5.70;3.13;;;;;;;18.44;89.27;100228.50;4231438;28;20240;-45
2023/09/14 06:33:52;;;;;;;4.73;3.03;;;;;;;18.80;88.13;100221.91;4233815;28;20346;-47
2023/09/14 06:36:19;;;;;;;6.67;2.70;;;;;;;18.97;86.71;100232.50;4218233;28;20224;-46
2023/09/14 06:38:47;;;;;;;7.27;3.07;;;;;;;19.01;85.87;100233.78;4223419;28;20236;-49
2023/09/14 06:41:16;;;;;;;5.03;3.33;;;;;;;19.47;83.64;100229.38;4225928;28;20452;-44
2023/09/14 06:43:44;;;;;;;7.00;2.97;;;;;;;19.62;82.78;100237.41;4218961;28;22931;-43
2023/09/14 06:46:12;;;;;;;7.50;2.87;;;;;;;19.44;83.43;100240.81;4232923;28;20236;-47
2023/09/14 06:48:40;;;;;;;7.37;2.80;;;;;;;19.71;81.87;100236.16;4240113;28;20660;-44
2023/09/14 06:51:06;;;;;;;9.40;3.80;;;;;;;19.68;81.36;100243.94;4219414;28;23142;-46
2023/09/14 06:53:33;;;;;;;4.87;2.70;;;;;;;19.39;83.37;100248.81;4216689;28;22157;-45
2023/09/14 06:56:13;;;;;;;6.67;2.63;;;;;;;19.40;83.36;100242.25;4216558;28;21098;-52
2023/09/14 06:58:39;;;;;;;5.47;2.70;;;;;;;19.41;82.03;100246.69;4221903;28;20296;-47
2023/09/14 07:01:06;;;;;;;4.40;2.40;;;;;;;19.35;82.56;100250.28;4211748;28;25315;-43
2023/09/14 07:03:34;;;;;;;4.73;2.40;;;;;;;19.37;82.53;100248.19;4215310;28;20229;-47
2023/09/14 07:06:02;;;;;;;7.23;2.63;;;;;;;19.43;82.11;100250.91;4210638;28;20520;-68
2023/09/14 07:08:29;;;;;;;5.97;2.90;;;;;;;19.25;82.61;100248.78;4226996;28;20234;-67
2023/09/14 07:10:55;;;;;;;6.20;2.83;;;;;;;19.09;83.08;100252.78;4210408;28;22976;-70
2023/09/14 07:13:23;;;;;;;6.00;2.60;;;;;;;19.30;82.55;100246.25;4230925;28;20231;-72
2023/09/14 07:15:51;;;;;;;9.50;2.57;;;;;;;19.02;84.05;100253.81;4218028;28;22681;-71
2023/09/14 07:18:30;;;;;;;6.00;2.70;;;;;;;19.36;81.82;100250.06;4223270;28;25105;-70
2023/09/14 07:20:58;;;;;;;7.43;2.83;;;;;;;19.94;79.92;100249.44;4214178;28;20284;-74
2023/09/14 07:23:25;;;;;;;6.87;3.33;;;;;;;20.18;78.26;100246.22;4231731;28;21359;-72
2023/09/14 07:25:52;;;;;;;7.70;3.90;;;;;;;20.57;76.47;100252.63;4210619;28;20240;-71
2023/09/14 07:28:22;;;;;;;9.43;3.10;;;;;;;21.29;73.92;100252.47;4227727;28;21281;-70
2023/09/14 07:30:50;;;;;;;6.88;2.67;;;;;;;21.78;70.74;100249.13;4242184;28;20233;-70
2023/09/14 07:33:17;;;;;;;6.30;2.70;;;;;;;22.97;66.76;100253.50;4223609;28;21620;-69
2023/09/14 07:35:45;;;;;;;6.47;1.93;;;;;;;25.84;57.56;100248.03;4246534;28;20485;-67
2023/09/14 07:38:13;;;;;;;6.53;2.00;;;;;;;26.51;51.56;100248.97;4228058;28;20244;-71
2023/09/14 07:40:40;;;;;;;8.37;2.20;;;;;;;24.95;56.81;100247.63;4219434;28;21718;-69
2023/09/14 07:43:08;;;;;;;8.07;1.70;;;;;;;26.13;53.57;100244.31;4231158;28;20262;-71
2023/09/14 07:45:34;;;;;;;5.83;1.43;;;;;;;25.88;52.60;100254.75;4238034;28;20235;-70
2023/09/14 07:48:04;;;;;;;2.60;1.00;;;;;;;26.12;52.21;100256.50;4257243;28;21282;-69
2023/09/14 07:50:39;;;;;;;2.33;1.27;;;;;;;27.45;47.24;100248.06;4246735;28;20995;-69
2023/09/14 07:53:07;;;;;;;2.50;1.13;;;;;;;30.40;42.36;100256.13;4231290;28;20228;-70
2023/09/14 07:55:34;;;;;;;5.45;1.10;;;;;;;29.35;42.95;100259.31;4220633;28;20269;-68
2023/09/14 07:58:01;;;;;;;2.53;1.17;;;;;;;24.21;54.76;100268.50;4221486;28;20237;-70
2023/09/14 08:00:28;;;;;;;9.55;1.10;;;;;;;23.72;55.89;100271.47;4228920;28;21700;-69
2023/09/14 08:02:55;;;;;;;4.50;1.07;;;;;;;22.24;59.41;100269.03;4221360;28;20313;-72
2023/09/14 08:05:22;;;;;;;1.93;1.00;;;;;;;24.30;55.67;100271.72;4219593;28;21859;-69
2023/09/14 08:07:49;;;;;;;3.07;1.00;;;;;;;24.74;55.27;100262.97;4219618;28;20247;-67
2023/09/14 08:10:16;;;;;;;4.60;1.23;;;;;;;26.85;48.41;100271.06;4241639;28;22302;-73
2023/09/14 08:12:43;;;;;;;6.17;0.80;;;;;;;25.89;51.21;100266.69;4227761;28;20232;-68
2023/09/14 08:15:10;;;;;;;3.33;1.00;;;;;;;26.10;49.89;100265.06;4215426;28;20244;-71
2023/09/14 08:17:37;;;;;;;1.87;0.73;;;;;;;24.34;53.97;100258.25;4227361;28;20310;-68
2023/09/14 08:20:05;;;;;;;1.23;0.73;;;;;;;23.47;55.72;100268.06;4226495;28;24225;-67
2023/09/14 08:22:31;;;;;;;1.57;0.93;;;;;;;23.19;56.67;100270.38;4211110;28;21752;-70
2023/09/14 08:25:00;;;;;;;2.40;0.80;;;;;;;23.02;57.55;100272.13;4210885;28;20236;-68
2023/09/14 08:27:31;;;;;;;2.73;1.00;;;;;;;22.38;59.60;100280.75;4255228;28;20334;-69
2023/09/14 08:29:58;;;;;;;4.20;0.87;;;;;;;23.13;58.08;100273.25;4250815;28;20240;-70
2023/09/14 08:32:25;;;;;;;3.27;0.80;;;;;;;23.32;55.87;100276.81;4223344;28;20335;-73
2023/09/14 08:34:58;;;;;;;1.83;0.80;;;;;;;23.30;56.04;100271.50;4218948;28;20232;-69
2023/09/14 08:37:24;;;;;;;4.57;0.90;;;;;;;23.49;56.63;100280.56;4237288;28;20238;-65
2023/09/14 08:39:51;;;;;;;1.57;0.90;;;;;;;22.74;57.99;100290.09;4217256;28;22637;-66
2023/09/14 08:42:23;;;;;;;3.37;0.90;;;;;;;22.79;57.11;100291.09;4203658;28;20310;-66
2023/09/14 08:44:51;;;;;;;1.53;0.70;;;;;;;21.94;59.47;100291.81;4224640;28;20602;-66
2023/09/14 08:47:19;;;;;;;1.57;0.73;;;;;;;22.29;58.36;100288.47;4210560;28;20239;-68
2023/09/14 08:49:49;;;;;;;1.23;0.73;;;;;;;22.62;57.25;100287.28;4267269;28;20309;-67
2023/09/14 08:52:17;;;;;;;1.90;0.60;;;;;;;22.61;57.04;100291.97;4225309;28;25378;-69
2023/09/14 08:54:44;;;;;;;4.73;0.80;;;;;;;22.10;59.72;100298.66;4210114;28;20235;-67
2023/09/14 08:57:11;;;;;;;2.03;0.67;;;;;;;22.22;58.71;100295.97;4205979;28;20512;-71
2023/09/14 08:59:39;;;;;;;6.83;0.80;;;;;;;21.68;60.04;100307.50;4213688;28;22267;-70
2023/09/14 09:02:10;;;;;;;1.00;0.60;;;;;;;22.33;57.96;100300.72;4244231;28;20236;-69
2023/09/14 09:04:38;;;;;;;2.70;0.70;;;;;;;22.63;57.66;100302.75;4217805;28;20654;-71
2023/09/14 09:07:07;;;;;;;3.40;0.83;;;;;;;22.93;56.38;100304.72;4213966;28;20293;-69
2023/09/14 09:09:34;;;;;;;2.17;0.80;;;;;;;23.34;55.88;100307.81;4237210;28;20239;-71
2023/09/14 09:12:01;;;;;;;2.23;0.70;;;;;;;23.05;55.75;100307.53;4237695;28;20448;-70
2023/09/14 09:14:31;;;;;;;1.63;0.90;;;;;;;23.12;56.30;100308.28;4219737;28;20684;-70
2023/09/14 09:16:59;;;;;;;1.97;1.10;;;;;;;23.17;56.54;100314.00;4216927;28;20391;-73
2023/09/14 09:19:26;;;;;;;3.27;0.90;;;;;;;22.95;56.62;100313.59;4217031;28;20298;-71
2023/09/14 09:21:53;;;;;;;3.53;1.03;;;;;;;21.92;59.53;100322.34;4210046;28;20240;-70
2023/09/14 09:24:27;;;;;;;1.60;1.10;;;;;;;22.26;59.55;100309.09;4217940;28;20235;-70
2023/09/14 09:26:55;;;;;;;2.57;0.83;;;;;;;21.99;60.30;100317.59;4216623;28;21802;-67
2023/09/14 09:29:22;;;;;;;4.70;1.20;;;;;;;22.06;60.87;100320.31;4221535;28;21912;-65
2023/09/14 09:31:50;;;;;;;2.23;0.90;;;;;;;21.83;61.01;100315.41;4225563;28;20423;-66
2023/09/14 09:34:31;;;;;;;1.90;1.10;;;;;;;21.80;61.35;100318.63;4216639;28;20309;-65
2023/09/14 09:36:59;;;;;;;10.23;1.90;;;;;;;21.90;62.17;100324.50;4215268;28;20243;-66
2023/09/14 09:39:26;;;;;;;2.20;1.20;;;;;;;22.03;61.52;100319.91;4218562;28;20335;-66
2023/09/14 09:41:53;;;;;;;2.63;1.13;;;;;;;22.05;61.09;100315.88;4221890;28;21346;-67
2023/09/14 09:44:27;;;;;;;4.40;1.30;;;;;;;22.16;60.69;100312.38;4209207;28;20308;-66
2023/09/14 09:46:57;;;;;;;3.43;1.07;;;;;;;22.07;61.07;100312.88;4226628;28;21578;-66
2023/09/14 09:49:27;;;;;;;1.73;1.00;;;;;;;22.17;60.02;100314.03;4234328;28;20231;-67
2023/09/14 09:51:54;;;;;;;1.70;1.00;;;;;;;21.59;61.79;100309.69;4223334;28;20221;-67
2023/09/14 09:54:24;;;;;;;3.90;1.00;;;;;;;21.38;62.34;100310.88;4225360;28;21208;-67
2023/09/14 09:56:51;;;;;;;1.97;1.20;;;;;;;21.47;62.31;100322.44;4222896;28;20402;-68
2023/09/14 09:59:18;;;;;;;1.77;0.90;;;;;;;21.92;60.61;100316.81;4217741;28;20431;-68
2023/09/14 10:01:48;;;;;;;5.27;1.27;;;;;;;21.88;60.80;100320.25;4207755;28;20240;-66
2023/09/14 10:04:19;;;;;;;4.23;1.30;;;;;;;21.91;60.33;100322.56;4213987;28;20232;-67
2023/09/14 10:06:51;;;;;;;1.83;1.00;;;;;;;21.97;60.39;100325.28;4212082;28;20257;-69
2023/09/14 10:09:19;;;;;;;1.90;1.00;;;;;;;22.08;60.34;100329.22;4218667;28;21137;-68
2023/09/14 10:11:49;;;;;;;2.30;1.00;;;;;;;21.89;60.09;100333.81;4209151;28;20256;-67
2023/09/14 10:14:19;;;;;;;2.47;1.10;;;;;;;21.59;61.03;100328.97;4236577;28;20230;-68
2023/09/14 10:16:50;;;;;;;1.47;0.97;;;;;;;21.64;61.73;100331.06;4211839;28;21055;-67
2023/09/14 10:19:19;;;;;;;1.90;1.50;;;;;;;21.40;63.26;100332.66;4217380;28;20236;-66
2023/09/14 10:21:52;;;;;;;2.50;1.30;;;;;;;21.02;64.43;100334.38;4219145;28;21746;-66
2023/09/14 10:24:21;;;;;;;4.33;1.30;;;;;;;20.99;65.01;100349.41;4221890;28;20257;-67
2023/09/14 10:26:49;;;;;;;3.13;1.20;;;;;;;21.01;64.99;100351.94;4209946;28;21126;-68
2023/09/14 10:29:17;;;;;;;4.40;1.43;;;;;;;20.90;65.25;100354.31;4221450;28;20236;-68
2023/09/14 10:31:46;;;;;;;3.40;1.27;;;;;;;21.18;64.97;100355.03;4220493;28;20272;-67
2023/09/14 10:34:14;;;;;;;2.70;1.40;;;;;;;21.18;64.45;100352.28;4218237;28;20235;-67
2023/09/14 10:36:45;;;;;;;3.57;1.60;;;;;;;21.45;64.21;100354.91;4224869;28;20895;-67
2023/09/14 10:39:12;;;;;;;8.93;1.63;;;;;;;21.42;63.52;100360.84;4230836;28;25512;-69
2023/09/14 10:41:39;;;;;;;3.40;1.33;;;;;;;21.92;62.48;100349.06;4214401;28;25543;-69
2023/09/14 10:44:07;;;;;;;2.40;1.40;;;;;;;22.37;61.71;100348.00;4191038;28;20236;-67
2023/09/14 10:46:41;;;;;;;4.03;1.30;;;;;;;22.60;61.86;100347.38;4221693;28;22158;-66
2023/09/14 10:49:09;;;;;;;2.10;1.20;;;;;;;22.62;60.15;100336.97;4225728;28;20235;-66
2023/09/14 10:51:36;;;;;;;4.03;1.20;;;;;;;22.65;59.12;100347.50;4232253;28;21221;-66
2023/09/14 10:54:03;;;;;;;4.43;1.40;;;;;;;22.44;59.91;100354.31;4222491;28;21116;-66
2023/09/14 10:56:31;;;;;;;2.97;1.10;;;;;;;22.36;60.12;100351.84;4244313;28;20453;-67
2023/09/14 10:58:59;;;;;;;9.60;1.47;;;;;;;22.38;60.34;100358.81;4223215;28;22431;-66
2023/09/14 11:01:28;;;;;;;3.00;1.07;;;;;;;22.21;60.94;100352.19;4221441;28;20235;-68
2023/09/14 11:04:17;;;;;;;2.70;1.30;;;;;;;21.69;62.35;100358.78;4218510;28;21432;-68
2023/09/14 11:06:47;;;;;;;2.57;1.10;;;;;;;21.41;62.73;100354.50;4229467;28;20243;-66
2023/09/14 11:09:17;;;;;;;3.30;0.90;;;;;;;21.66;62.39;100362.81;4213575;28;20235;-67
2023/09/14 11:11:46;;;;;;;2.33;1.10;;;;;;;21.99;61.40;100369.16;4247539;28;20233;-67
2023/09/14 11:14:17;;;;;;;3.13;1.03;;;;;;;21.96;60.85;100375.94;4218435;28;20251;-66
2023/09/14 11:16:52;;;;;;;5.63;1.30;;;;;;;22.30;60.17;100368.22;4225431;28;21493;-68
2023/09/14 11:19:29;;;;;;;3.77;1.40;;;;;;;22.58;59.82;100369.66;4228114;28;20519;-67
2023/09/14 11:22:15;;;;;;;2.67;1.10;;;;;;;22.39;60.11;100371.56;4229250;28;20778;-67